Time;durP1;ratioP1;P1;durP2;ratioP2;P2;SDS_P1;SDS_P2;PMS_P1;PMS_P2;Temp;Humidity;BMP_temperature;BMP_pressure;BME280_temperature;BME280_humidity;BME280_pressure;Samples;Min_cycle;Max_cycle;Signal;HPM_P1;HPM_P2
2022/11/25 00:01:17;;;;;;;0.30;0.30;;;3.90;99.90;;;;;;5033421;28;20446;-86
2022/11/25 00:03:44;;;;;;;0.30;0.30;;;3.90;99.90;;;;;;5030100;28;20857;-86
2022/11/25 00:06:17;;;;;;;0.30;0.30;;;3.90;99.90;;;;;;5010936;28;20860;-85
2022/11/25 00:08:44;;;;;;;0.40;0.40;;;3.90;99.90;;;;;;5029825;28;20445;-85
2022/11/25 00:11:11;;;;;;;0.40;0.40;;;3.80;99.90;;;;;;5010712;28;20474;-85
2022/11/25 00:13:37;;;;;;;0.30;0.30;;;3.80;99.90;;;;;;5025041;28;20938;-86
2022/11/25 00:16:07;;;;;;;0.30;0.30;;;3.80;99.90;;;;;;5024094;28;20489;-86
2022/11/25 00:18:32;;;;;;;0.40;0.40;;;3.80;99.90;;;;;;5010280;28;20454;-86
2022/11/25 00:21:03;;;;;;;0.40;0.40;;;3.80;99.90;;;;;;5026503;28;20450;-86
2022/11/25 00:23:29;;;;;;;0.40;0.40;;;3.70;99.90;;;;;;5028407;28;20223;-86
2022/11/25 00:25:54;;;;;;;0.30;0.30;;;3.70;99.90;;;;;;5027274;28;21005;-86
2022/11/25 00:28:20;;;;;;;0.33;0.33;;;3.70;99.90;;;;;;5027551;28;20195;-86
2022/11/25 00:30:45;;;;;;;0.30;0.30;;;3.70;99.90;;;;;;5024951;28;20206;-86
2022/11/25 00:33:11;;;;;;;0.30;0.30;;;3.60;99.90;;;;;;5036756;28;20278;-85
2022/11/25 00:35:36;;;;;;;0.40;0.40;;;3.60;99.90;;;;;;5026813;28;20245;-85
2022/11/25 00:38:02;;;;;;;0.30;0.30;;;3.60;99.90;;;;;;5026872;28;20191;-85
2022/11/25 00:40:27;;;;;;;0.30;0.30;;;3.60;99.90;;;;;;5024854;28;20867;-86
2022/11/25 00:45:37;;;;;;;0.40;0.40;;;3.50;99.90;;;;;;5020610;28;20644;-86
2022/11/25 00:48:02;;;;;;;0.37;0.37;;;3.60;99.90;;;;;;5037330;28;20980;-85
2022/11/25 00:50:28;;;;;;;0.40;0.40;;;3.60;99.90;;;;;;5029124;28;20192;-86
2022/11/25 00:52:53;;;;;;;0.30;0.30;;;3.60;99.90;;;;;;5027679;28;20184;-85
2022/11/25 00:55:18;;;;;;;0.30;0.30;;;3.60;99.90;;;;;;5027993;28;20222;-85
2022/11/25 00:57:44;;;;;;;0.40;0.40;;;3.60;99.90;;;;;;5033217;28;20195;-85
2022/11/25 01:00:11;;;;;;;0.40;0.40;;;3.60;99.90;;;;;;5026130;28;20191;-85
2022/11/25 01:02:36;;;;;;;0.40;0.40;;;3.60;99.90;;;;;;5028600;28;20186;-84
2022/11/25 01:05:02;;;;;;;0.30;0.30;;;3.60;99.90;;;;;;5029078;28;20450;-85
2022/11/25 01:07:27;;;;;;;0.30;0.30;;;3.60;99.90;;;;;;5027809;28;20698;-85
2022/11/25 01:09:53;;;;;;;0.40;0.40;;;3.60;99.90;;;;;;5029492;28;20438;-85
2022/11/25 01:12:18;;;;;;;0.40;0.40;;;3.70;99.90;;;;;;5036338;28;20242;-84
2022/11/25 01:14:44;;;;;;;0.30;0.30;;;3.70;99.90;;;;;;5020531;28;20230;-84
2022/11/25 01:17:09;;;;;;;0.40;0.40;;;3.70;99.90;;;;;;5028011;28;20290;-87
2022/11/25 01:19:39;;;;;;;0.33;0.33;;;3.60;99.90;;;;;;5039561;28;20202;-86
2022/11/25 01:22:06;;;;;;;0.30;0.30;;;3.70;99.90;;;;;;5027672;28;20202;-85
2022/11/25 01:24:31;;;;;;;0.40;0.40;;;3.60;99.90;;;;;;5031526;28;20500;-85
2022/11/25 01:26:57;;;;;;;0.40;0.40;;;3.60;99.90;;;;;;5050704;28;20913;-86
2022/11/25 01:29:23;;;;;;;0.40;0.40;;;3.60;99.90;;;;;;5029829;28;20195;-85
2022/11/25 01:31:48;;;;;;;0.40;0.40;;;3.60;99.90;;;;;;5020479;28;20283;-86
2022/11/25 01:34:17;;;;;;;0.30;0.30;;;3.60;99.90;;;;;;5009120;28;20270;-86
2022/11/25 01:36:42;;;;;;;0.37;0.37;;;3.70;99.90;;;;;;5031369;28;20199;-86
2022/11/25 01:39:15;;;;;;;0.40;0.40;;;3.70;99.90;;;;;;5031889;28;20480;-86
2022/11/25 01:41:40;;;;;;;0.30;0.30;;;3.60;99.90;;;;;;5016951;28;20191;-86
2022/11/25 01:44:13;;;;;;;0.30;0.30;;;3.70;99.90;;;;;;5030828;28;20501;-86
2022/11/25 01:46:51;;;;;;;0.40;0.40;;;3.70;99.90;;;;;;5029575;28;20278;-86
2022/11/25 01:49:23;;;;;;;0.30;0.30;;;3.70;99.90;;;;;;5037367;28;20441;-86
2022/11/25 01:52:23;;;;;;;0.40;0.40;;;3.70;99.90;;;;;;5040101;28;20434;-86
2022/11/25 01:54:54;;;;;;;0.40;0.40;;;3.70;99.90;;;;;;5025740;28;20491;-86
2022/11/25 01:57:26;;;;;;;0.37;0.37;;;3.70;99.90;;;;;;5030999;28;20449;-86
2022/11/25 01:59:56;;;;;;;0.40;0.40;;;3.70;99.90;;;;;;5027686;28;20446;-86
2022/11/25 02:02:22;;;;;;;0.40;0.40;;;3.70;99.90;;;;;;5027339;28;20455;-87
2022/11/25 02:04:48;;;;;;;0.30;0.30;;;3.70;99.90;;;;;;5030696;28;20437;-86
2022/11/25 02:07:30;;;;;;;0.30;0.30;;;3.80;99.90;;;;;;5014582;28;20454;-86
2022/11/25 02:09:56;;;;;;;0.30;0.30;;;3.70;99.90;;;;;;5033336;28;20206;-86
2022/11/25 02:12:21;;;;;;;0.30;0.30;;;3.70;99.90;;;;;;5031303;28;21009;-85
2022/11/25 02:14:49;;;;;;;0.30;0.30;;;3.70;99.90;;;;;;5037479;28;20513;-86
2022/11/25 02:17:15;;;;;;;0.40;0.40;;;3.80;99.90;;;;;;5018299;28;20188;-84
2022/11/25 02:19:43;;;;;;;0.30;0.30;;;3.70;99.90;;;;;;5029542;28;20450;-84
2022/11/25 02:22:14;;;;;;;0.33;0.33;;;3.80;99.90;;;;;;5027946;28;20199;-84
2022/11/25 02:24:45;;;;;;;0.30;0.30;;;3.80;99.90;;;;;;5010003;28;20836;-83
2022/11/25 02:27:11;;;;;;;0.30;0.30;;;3.80;99.90;;;;;;5034727;28;20452;-84
2022/11/25 02:29:38;;;;;;;0.40;0.40;;;3.80;99.90;;;;;;5026003;28;20851;-83
2022/11/25 02:32:03;;;;;;;0.40;0.40;;;3.80;99.90;;;;;;5031490;28;20699;-84
2022/11/25 02:34:29;;;;;;;0.40;0.40;;;3.80;99.90;;;;;;5028993;28;20580;-84
2022/11/25 02:36:55;;;;;;;0.30;0.30;;;3.90;99.90;;;;;;5030424;28;20481;-83
2022/11/25 02:39:21;;;;;;;0.30;0.30;;;3.90;99.90;;;;;;5034967;28;20187;-84
2022/11/25 02:41:52;;;;;;;0.30;0.30;;;3.90;99.90;;;;;;5034338;28;20450;-83
2022/11/25 02:44:19;;;;;;;0.30;0.30;;;3.90;99.90;;;;;;5001803;28;20492;-85
2022/11/25 02:46:44;;;;;;;0.30;0.30;;;3.90;99.90;;;;;;5011605;28;20553;-84
2022/11/25 02:49:10;;;;;;;0.30;0.30;;;3.90;99.90;;;;;;5012461;28;20525;-85
2022/11/25 02:51:38;;;;;;;0.40;0.40;;;3.80;99.90;;;;;;5029139;28;20185;-86
2022/11/25 02:54:04;;;;;;;0.20;0.20;;;3.90;99.90;;;;;;5029492;28;20198;-86
2022/11/25 02:56:32;;;;;;;0.40;0.40;;;3.80;99.90;;;;;;5044014;28;20507;-85
2022/11/25 02:58:59;;;;;;;0.40;0.40;;;3.80;99.90;;;;;;5028716;28;20860;-86
2022/11/25 03:01:24;;;;;;;0.40;0.40;;;3.80;99.90;;;;;;5025224;28;20500;-85
2022/11/25 03:03:50;;;;;;;0.40;0.40;;;3.80;99.90;;;;;;5040205;28;20449;-85
2022/11/25 03:06:15;;;;;;;0.40;0.40;;;3.80;99.90;;;;;;5043805;28;20182;-85
2022/11/25 03:08:41;;;;;;;0.40;0.40;;;3.80;99.90;;;;;;5008820;28;20248;-86
2022/11/25 03:11:06;;;;;;;0.30;0.30;;;3.80;99.90;;;;;;5031338;28;20239;-85
2022/11/25 03:13:32;;;;;;;0.40;0.40;;;3.80;99.90;;;;;;5027340;28;20187;-86
2022/11/25 03:15:57;;;;;;;0.40;0.40;;;3.80;99.90;;;;;;5021649;28;20215;-86
2022/11/25 03:18:23;;;;;;;0.33;0.33;;;3.70;99.90;;;;;;5024700;28;20183;-85
2022/11/25 03:20:53;;;;;;;0.30;0.30;;;3.70;99.90;;;;;;5029429;28;20191;-86
2022/11/25 03:23:18;;;;;;;0.40;0.40;;;3.70;99.90;;;;;;5030181;28;20187;-85
2022/11/25 03:25:44;;;;;;;0.40;0.40;;;3.70;99.90;;;;;;5028932;28;20450;-85
2022/11/25 03:28:10;;;;;;;0.30;0.30;;;3.70;99.90;;;;;;5023116;28;20202;-85
2022/11/25 03:30:35;;;;;;;0.40;0.40;;;3.70;99.90;;;;;;5019809;28;20310;-85
2022/11/25 03:33:00;;;;;;;0.40;0.40;;;3.70;99.90;;;;;;5029493;28;20187;-84
2022/11/25 03:35:26;;;;;;;0.40;0.40;;;3.60;99.90;;;;;;5044859;28;20670;-85
2022/11/25 03:37:51;;;;;;;0.40;0.40;;;3.60;99.90;;;;;;5030568;28;20187;-86
2022/11/25 03:40:17;;;;;;;0.40;0.40;;;3.60;99.90;;;;;;5030491;28;20252;-86
2022/11/25 03:42:43;;;;;;;0.40;0.40;;;3.60;99.90;;;;;;5038389;28;20747;-84
2022/11/25 03:45:11;;;;;;;0.30;0.30;;;3.60;99.90;;;;;;5023741;28;20192;-86
2022/11/25 03:47:37;;;;;;;0.37;0.37;;;3.50;99.90;;;;;;5030644;28;20191;-86
2022/11/25 03:50:03;;;;;;;0.40;0.40;;;3.50;99.90;;;;;;5029740;28;21265;-86
2022/11/25 03:52:29;;;;;;;0.40;0.40;;;3.50;99.90;;;;;;5007258;28;20354;-86
2022/11/25 03:54:55;;;;;;;0.30;0.30;;;3.50;99.90;;;;;;5026837;28;20486;-86
2022/11/25 03:57:21;;;;;;;0.30;0.30;;;3.50;99.90;;;;;;5028876;28;20988;-85
2022/11/25 03:59:46;;;;;;;0.30;0.30;;;3.50;99.90;;;;;;5023210;28;20188;-86
2022/11/25 04:02:13;;;;;;;0.30;0.30;;;3.50;99.90;;;;;;5028680;28;20561;-87
2022/11/25 04:04:38;;;;;;;0.43;0.43;;;3.50;99.90;;;;;;5022632;28;20176;-85
2022/11/25 04:07:04;;;;;;;0.40;0.40;;;3.50;99.90;;;;;;5026552;28;20466;-86
2022/11/25 04:09:29;;;;;;;0.40;0.40;;;3.50;99.90;;;;;;5034649;28;20588;-85
2022/11/25 04:14:39;;;;;;;0.40;0.40;;;3.40;99.90;;;;;;5022119;28;20931;-86
2022/11/25 04:17:04;;;;;;;0.40;0.40;;;3.40;99.90;;;;;;5025600;28;20549;-86
2022/11/25 04:19:30;;;;;;;0.37;0.37;;;3.40;99.90;;;;;;5031282;28;20188;-86
2022/11/25 04:21:58;;;;;;;0.30;0.30;;;3.40;99.90;;;;;;5029794;28;20206;-86
2022/11/25 04:24:24;;;;;;;0.40;0.40;;;3.40;99.90;;;;;;5023922;28;20199;-87
2022/11/25 04:26:49;;;;;;;0.40;0.40;;;3.40;99.90;;;;;;5040186;28;20430;-86
2022/11/25 04:29:15;;;;;;;0.37;0.37;;;3.30;99.90;;;;;;5029161;28;20218;-87
2022/11/25 04:31:40;;;;;;;0.30;0.30;;;3.40;99.90;;;;;;5034082;28;20196;-86
2022/11/25 04:34:06;;;;;;;0.30;0.30;;;3.30;99.90;;;;;;5004280;28;20238;-86
2022/11/25 04:36:31;;;;;;;0.40;0.40;;;3.30;99.90;;;;;;5025764;28;20175;-86
2022/11/25 04:38:57;;;;;;;0.43;0.43;;;3.30;99.90;;;;;;5031422;28;20617;-86
2022/11/25 04:41:23;;;;;;;0.23;0.23;;;3.30;99.90;;;;;;5042911;28;20187;-85
2022/11/25 04:43:48;;;;;;;0.40;0.40;;;3.30;99.90;;;;;;5025698;28;20194;-85
2022/11/25 04:46:18;;;;;;;0.30;0.30;;;3.30;99.90;;;;;;5027486;28;20561;-85
2022/11/25 04:48:43;;;;;;;0.40;0.40;;;3.30;99.90;;;;;;5027779;28;20195;-85
2022/11/25 04:51:09;;;;;;;0.40;0.40;;;3.30;99.90;;;;;;5028293;28;20824;-86
2022/11/25 04:53:34;;;;;;;0.30;0.30;;;3.30;99.90;;;;;;5011826;28;20222;-85
2022/11/25 04:56:00;;;;;;;0.40;0.40;;;3.30;99.90;;;;;;5029522;28;20699;-85
2022/11/25 05:01:09;;;;;;;0.30;0.30;;;3.30;99.90;;;;;;5020209;28;20276;-85
2022/11/25 05:03:35;;;;;;;0.40;0.40;;;3.30;99.90;;;;;;5027473;28;20941;-86
2022/11/25 05:06:07;;;;;;;0.30;0.30;;;3.30;99.90;;;;;;5028624;28;20194;-85
2022/11/25 05:08:33;;;;;;;0.30;0.30;;;3.30;99.90;;;;;;5031947;28;20187;-85
2022/11/25 05:10:59;;;;;;;0.40;0.40;;;3.30;99.90;;;;;;5030242;28;20446;-85
2022/11/25 05:13:24;;;;;;;0.30;0.30;;;3.40;99.90;;;;;;5027394;28;20199;-85
2022/11/25 05:15:50;;;;;;;0.40;0.40;;;3.40;99.90;;;;;;5024677;28;20874;-85
2022/11/25 05:18:15;;;;;;;0.40;0.40;;;3.40;99.90;;;;;;5028529;28;20185;-85
2022/11/25 05:20:41;;;;;;;0.50;0.50;;;3.40;99.90;;;;;;5031282;28;20196;-86
2022/11/25 05:23:07;;;;;;;0.40;0.40;;;3.40;99.90;;;;;;5021707;28;20236;-86
2022/11/25 05:25:32;;;;;;;0.40;0.40;;;3.40;99.90;;;;;;5022940;28;20799;-85
2022/11/25 05:27:58;;;;;;;0.40;0.40;;;3.40;99.90;;;;;;5024956;28;20191;-86
2022/11/25 05:30:23;;;;;;;0.40;0.40;;;3.40;99.90;;;;;;5021835;28;21164;-86
2022/11/25 05:32:48;;;;;;;0.30;0.30;;;3.40;99.90;;;;;;5029140;28;20203;-86
2022/11/25 05:35:14;;;;;;;0.37;0.37;;;3.40;99.90;;;;;;5008105;28;22664;-85
2022/11/25 05:37:40;;;;;;;0.40;0.40;;;3.40;99.90;;;;;;5024664;28;20187;-86
2022/11/25 05:40:06;;;;;;;0.40;0.40;;;3.40;99.90;;;;;;5019212;28;20192;-84
2022/11/25 05:42:31;;;;;;;0.40;0.40;;;3.40;99.90;;;;;;5020703;28;20270;-86
2022/11/25 05:44:57;;;;;;;0.20;0.20;;;3.40;99.90;;;;;;5021152;28;20563;-85
2022/11/25 05:47:22;;;;;;;0.40;0.40;;;3.40;99.90;;;;;;5003958;28;20194;-85
2022/11/25 05:49:48;;;;;;;0.40;0.40;;;3.40;99.90;;;;;;5019196;28;20180;-85
2022/11/25 05:52:13;;;;;;;0.40;0.40;;;3.40;99.90;;;;;;5026946;28;20345;-85
2022/11/25 05:54:38;;;;;;;0.40;0.40;;;3.40;99.90;;;;;;5026590;28;20211;-85
2022/11/25 05:57:04;;;;;;;0.40;0.40;;;3.40;99.90;;;;;;5027325;28;20206;-85
2022/11/25 05:59:30;;;;;;;0.30;0.30;;;3.40;99.90;;;;;;5024159;28;20202;-87
2022/11/25 06:01:55;;;;;;;0.40;0.40;;;3.40;99.90;;;;;;5030399;28;20536;-86
2022/11/25 06:04:20;;;;;;;0.40;0.40;;;3.40;99.90;;;;;;5016106;28;20193;-85
2022/11/25 06:06:46;;;;;;;0.40;0.40;;;3.30;99.90;;;;;;5028422;28;20202;-86
2022/11/25 06:09:12;;;;;;;0.40;0.40;;;3.30;99.90;;;;;;5027843;28;20172;-85
2022/11/25 06:11:37;;;;;;;0.40;0.40;;;3.30;99.90;;;;;;5044658;28;20591;-86
2022/11/25 06:14:03;;;;;;;0.40;0.40;;;3.40;99.90;;;;;;5037062;28;20211;-85
2022/11/25 06:16:28;;;;;;;0.20;0.20;;;3.40;99.90;;;;;;5023975;28;20219;-85
2022/11/25 06:18:54;;;;;;;0.30;0.30;;;3.30;99.90;;;;;;5031291;28;20194;-85
2022/11/25 06:21:19;;;;;;;0.30;0.30;;;3.30;99.90;;;;;;5029807;28;20191;-85
2022/11/25 06:23:45;;;;;;;0.40;0.40;;;3.30;99.90;;;;;;5033221;28;20192;-86
2022/11/25 06:26:16;;;;;;;0.40;0.40;;;3.30;99.90;;;;;;5028841;28;20233;-86
2022/11/25 06:28:42;;;;;;;0.30;0.30;;;3.30;99.90;;;;;;5028424;28;20438;-85
2022/11/25 06:31:14;;;;;;;0.40;0.40;;;3.30;99.90;;;;;;5024240;28;20439;-85
2022/11/25 06:33:40;;;;;;;0.40;0.40;;;3.40;99.90;;;;;;4994176;28;20273;-85
2022/11/25 06:36:08;;;;;;;0.40;0.40;;;3.40;99.90;;;;;;5013203;28;20543;-84
2022/11/25 06:38:35;;;;;;;0.30;0.30;;;3.40;99.90;;;;;;5011757;28;20931;-87
2022/11/25 06:41:02;;;;;;;0.30;0.30;;;3.50;99.90;;;;;;5037490;28;20454;-86
2022/11/25 06:43:28;;;;;;;0.40;0.40;;;3.50;99.90;;;;;;5026550;28;20762;-84
2022/11/25 06:45:54;;;;;;;0.30;0.30;;;3.50;99.90;;;;;;5026212;28;20454;-85
2022/11/25 06:48:19;;;;;;;0.30;0.30;;;3.60;99.90;;;;;;5028079;28;20203;-86
2022/11/25 06:50:53;;;;;;;0.40;0.40;;;3.60;99.90;;;;;;5029738;28;20195;-85
2022/11/25 06:53:19;;;;;;;0.40;0.40;;;3.70;99.90;;;;;;5029462;28;20302;-87
2022/11/25 06:55:44;;;;;;;0.40;0.40;;;3.70;99.90;;;;;;5032399;28;20588;-86
2022/11/25 06:58:10;;;;;;;0.40;0.40;;;3.80;99.90;;;;;;5028952;28;20204;-85
2022/11/25 07:00:35;;;;;;;0.27;0.27;;;3.80;99.90;;;;;;5025820;28;20278;-86
2022/11/25 07:03:01;;;;;;;0.30;0.30;;;3.80;99.90;;;;;;5028235;28;20184;-87
2022/11/25 07:05:26;;;;;;;0.33;0.33;;;3.80;99.90;;;;;;5025494;28;20231;-85
2022/11/25 07:07:52;;;;;;;0.40;0.40;;;3.80;99.90;;;;;;5011136;28;20192;-87
2022/11/25 07:10:17;;;;;;;0.30;0.30;;;3.90;99.90;;;;;;5031147;28;20567;-88
2022/11/25 07:12:43;;;;;;;0.40;0.40;;;3.90;99.90;;;;;;5009782;28;20723;-86
2022/11/25 07:15:08;;;;;;;0.40;0.40;;;3.90;99.90;;;;;;5015959;28;20223;-84
2022/11/25 07:17:34;;;;;;;0.30;0.30;;;3.90;99.90;;;;;;5029509;28;20809;-85
2022/11/25 07:19:59;;;;;;;0.40;0.40;;;4.00;99.90;;;;;;5021518;28;20592;-86
2022/11/25 07:22:25;;;;;;;0.30;0.30;;;4.00;99.90;;;;;;5018480;28;20245;-86
2022/11/25 07:24:50;;;;;;;0.30;0.30;;;4.10;99.90;;;;;;5026262;28;20558;-86
2022/11/25 07:27:16;;;;;;;0.30;0.30;;;4.10;99.90;;;;;;5026832;28;20674;-87
2022/11/25 07:29:41;;;;;;;0.30;0.30;;;4.10;99.90;;;;;;5024763;28;20195;-85
2022/11/25 07:32:07;;;;;;;0.30;0.30;;;4.10;99.90;;;;;;5005448;28;20189;-86
2022/11/25 07:34:32;;;;;;;0.20;0.20;;;4.10;99.90;;;;;;5025967;28;20211;-85
2022/11/25 07:36:58;;;;;;;0.30;0.30;;;4.10;99.90;;;;;;5029059;28;20191;-84
2022/11/25 07:39:23;;;;;;;0.30;0.30;;;4.10;99.90;;;;;;5014203;28;20183;-86
2022/11/25 07:41:50;;;;;;;0.30;0.30;;;4.10;99.90;;;;;;5027923;28;20203;-86
2022/11/25 07:44:16;;;;;;;0.30;0.30;;;4.00;99.90;;;;;;5030601;28;20234;-85
2022/11/25 07:46:44;;;;;;;0.30;0.30;;;4.00;99.90;;;;;;5028453;28;20434;-87
2022/11/25 07:49:12;;;;;;;0.40;0.40;;;4.10;99.90;;;;;;5019226;28;20204;-86
2022/11/25 07:51:40;;;;;;;0.30;0.30;;;4.20;99.90;;;;;;5030568;28;21080;-88
2022/11/25 07:54:08;;;;;;;0.23;0.23;;;4.20;99.90;;;;;;5009471;28;20537;-86
2022/11/25 07:56:35;;;;;;;0.30;0.30;;;4.10;99.90;;;;;;5028083;28;20868;-87
2022/11/25 07:59:01;;;;;;;0.30;0.30;;;4.10;99.90;;;;;;5024328;28;20439;-85
2022/11/25 08:01:27;;;;;;;0.30;0.30;;;4.10;99.90;;;;;;5019891;28;20465;-85
2022/11/25 08:03:53;;;;;;;0.40;0.40;;;4.10;99.90;;;;;;5028670;28;20654;-86
2022/11/25 08:06:21;;;;;;;0.30;0.30;;;4.10;99.90;;;;;;5023367;28;20198;-86
2022/11/25 08:08:47;;;;;;;0.20;0.20;;;4.10;99.90;;;;;;5025124;28;20195;-86
2022/11/25 08:11:18;;;;;;;0.30;0.30;;;4.10;99.90;;;;;;5037546;28;20787;-85
2022/11/25 08:13:44;;;;;;;0.30;0.30;;;4.10;99.90;;;;;;5012430;28;20491;-86
2022/11/25 08:16:18;;;;;;;0.30;0.30;;;4.10;99.90;;;;;;5037892;28;20481;-86
2022/11/25 08:18:44;;;;;;;0.40;0.40;;;4.10;99.90;;;;;;5029043;28;20442;-86
2022/11/25 08:21:12;;;;;;;0.30;0.30;;;4.10;99.90;;;;;;5022760;28;20583;-86
2022/11/25 08:23:39;;;;;;;0.37;0.37;;;4.10;99.90;;;;;;5027382;28;20621;-87
2022/11/25 08:26:10;;;;;;;0.20;0.20;;;4.20;99.90;;;;;;5026457;28;20442;-86
2022/11/25 08:28:37;;;;;;;0.50;0.50;;;4.20;99.90;;;;;;5021245;28;20450;-86
2022/11/25 08:31:24;;;;;;;0.30;0.30;;;4.20;99.90;;;;;;5035712;28;20448;-85
2022/11/25 08:33:50;;;;;;;0.37;0.37;;;4.20;99.90;;;;;;5022097;28;20446;-85
2022/11/25 08:36:17;;;;;;;0.40;0.40;;;4.20;99.90;;;;;;5019003;28;20844;-86
2022/11/25 08:38:44;;;;;;;0.50;0.50;;;4.20;99.90;;;;;;5028828;28;20434;-86
2022/11/25 08:41:18;;;;;;;0.40;0.40;;;4.20;99.90;;;;;;5028535;28;20977;-85
2022/11/25 08:43:44;;;;;;;0.40;0.40;;;4.20;99.90;;;;;;5013428;28;20520;-86
2022/11/25 08:46:19;;;;;;;0.40;0.40;;;4.20;99.90;;;;;;5026504;28;20541;-87
2022/11/25 08:48:44;;;;;;;0.50;0.50;;;4.20;99.90;;;;;;5029043;28;20241;-87
2022/11/25 08:51:13;;;;;;;0.30;0.30;;;4.20;99.90;;;;;;5027265;28;20446;-87
2022/11/25 08:53:40;;;;;;;0.30;0.30;;;4.20;99.90;;;;;;5027649;28;20194;-87
2022/11/25 08:56:06;;;;;;;0.30;0.30;;;4.20;99.90;;;;;;5008758;28;21002;-87
2022/11/25 08:58:32;;;;;;;0.40;0.40;;;4.20;99.90;;;;;;5010406;28;20532;-87
2022/11/25 09:00:58;;;;;;;0.37;0.37;;;4.20;99.90;;;;;;5011584;28;20442;-87
2022/11/25 09:03:24;;;;;;;0.30;0.30;;;4.20;99.90;;;;;;5024727;28;20564;-83
2022/11/25 09:05:51;;;;;;;0.40;0.40;;;4.20;99.90;;;;;;5010389;28;20680;-93
2022/11/25 09:08:16;;;;;;;0.30;0.30;;;4.20;99.90;;;;;;5027945;28;20199;-87
2022/11/25 09:10:42;;;;;;;0.40;0.40;;;4.20;99.90;;;;;;5022621;28;20434;-88
2022/11/25 09:13:10;;;;;;;0.40;0.40;;;4.20;99.90;;;;;;5020721;28;21049;-86
2022/11/25 09:15:36;;;;;;;0.30;0.30;;;4.20;99.90;;;;;;5008122;28;20683;-92
2022/11/25 09:18:05;;;;;;;0.30;0.30;;;4.20;99.90;;;;;;5026742;28;20786;-88
2022/11/25 09:20:32;;;;;;;0.30;0.30;;;4.20;99.90;;;;;;5025910;28;20449;-89
2022/11/25 09:22:58;;;;;;;0.40;0.40;;;4.30;99.90;;;;;;5027223;28;20438;-90
2022/11/25 09:25:24;;;;;;;0.30;0.30;;;4.30;99.90;;;;;;5027003;28;20442;-92
2022/11/25 09:27:49;;;;;;;0.40;0.40;;;4.40;99.90;;;;;;5027820;28;20746;-89
2022/11/25 09:30:15;;;;;;;0.40;0.40;;;4.40;99.90;;;;;;5028905;28;20202;-89
2022/11/25 09:32:41;;;;;;;0.20;0.20;;;4.50;99.90;;;;;;5030153;28;20171;-89
2022/11/25 09:35:07;;;;;;;0.30;0.30;;;4.50;99.90;;;;;;5020538;28;20581;-91
2022/11/25 09:37:32;;;;;;;0.40;0.40;;;4.60;99.90;;;;;;5027249;28;20446;-91
2022/11/25 09:39:58;;;;;;;0.33;0.33;;;4.60;99.90;;;;;;5026151;28;20198;-88
2022/11/25 09:48:44;;;;;;;0.30;0.30;;;4.70;99.90;;;;;;5032424;28;20445;-90
2022/11/25 09:51:21;;;;;;;0.30;0.30;;;4.70;99.90;;;;;;5012089;28;20449;-89
2022/11/25 09:53:52;;;;;;;0.30;0.30;;;4.70;99.90;;;;;;5021087;28;21060;-90
2022/11/25 09:56:26;;;;;;;0.30;0.30;;;4.70;99.90;;;;;;5012217;28;20470;-88
2022/11/25 09:59:09;;;;;;;0.30;0.30;;;4.80;99.90;;;;;;5027188;28;20867;-88
2022/11/25 10:01:45;;;;;;;0.33;0.33;;;4.80;99.90;;;;;;5023161;28;20442;-88
2022/11/25 10:04:19;;;;;;;0.30;0.30;;;4.80;99.90;;;;;;5022254;28;20945;-88
2022/11/25 10:06:55;;;;;;;0.40;0.40;;;4.80;99.90;;;;;;5027476;28;20476;-89
2022/11/25 10:09:25;;;;;;;0.37;0.37;;;4.80;99.90;;;;;;5031817;28;20413;-87
2022/11/25 10:12:24;;;;;;;0.30;0.30;;;4.90;99.90;;;;;;5025161;28;20481;-86
2022/11/25 10:15:02;;;;;;;0.30;0.30;;;4.80;99.90;;;;;;4992855;28;20489;-88
2022/11/25 10:17:38;;;;;;;0.30;0.30;;;4.90;99.90;;;;;;5028116;28;20454;-89
2022/11/25 10:20:18;;;;;;;0.30;0.30;;;4.90;99.90;;;;;;5030550;28;20553;-87
2022/11/25 10:23:05;;;;;;;0.30;0.30;;;4.90;99.90;;;;;;5028879;28;20520;-88
2022/11/25 10:25:40;;;;;;;0.30;0.30;;;4.80;99.90;;;;;;5021228;28;20446;-87
2022/11/25 10:28:21;;;;;;;0.30;0.30;;;4.90;99.90;;;;;;5030359;28;20843;-88
2022/11/25 10:31:08;;;;;;;0.40;0.40;;;4.90;99.90;;;;;;5012587;28;20449;-87
2022/11/25 10:33:46;;;;;;;0.40;0.40;;;4.90;99.90;;;;;;5029741;28;20441;-86
2022/11/25 10:36:25;;;;;;;0.40;0.40;;;4.90;99.90;;;;;;5019771;28;20492;-87
2022/11/25 10:39:09;;;;;;;0.40;0.40;;;4.90;99.90;;;;;;5035283;28;21040;-87
2022/11/25 10:42:06;;;;;;;0.40;0.40;;;4.90;99.90;;;;;;5024287;28;20477;-86
2022/11/25 10:44:34;;;;;;;0.30;0.30;;;4.90;99.90;;;;;;5017484;28;20462;-87
2022/11/25 10:47:25;;;;;;;0.30;0.30;;;4.90;99.90;;;;;;5032021;28;20450;-87
2022/11/25 10:50:14;;;;;;;0.30;0.30;;;4.90;99.90;;;;;;5010525;28;20992;-87
2022/11/25 10:52:47;;;;;;;0.30;0.30;;;4.90;99.90;;;;;;5028733;28;20942;-87
2022/11/25 10:55:25;;;;;;;0.30;0.30;;;4.90;99.90;;;;;;5008362;28;20466;-89
2022/11/25 10:57:54;;;;;;;0.30;0.30;;;4.90;99.90;;;;;;5033330;28;20956;-87
2022/11/25 11:00:37;;;;;;;0.30;0.30;;;5.00;99.90;;;;;;5017084;28;20453;-88
2022/11/25 11:03:23;;;;;;;0.30;0.30;;;5.00;99.90;;;;;;5026538;28;20453;-90
2022/11/25 11:05:51;;;;;;;0.30;0.30;;;5.00;99.90;;;;;;5028044;28;20934;-88
2022/11/25 11:08:23;;;;;;;0.27;0.27;;;5.00;99.90;;;;;;5008245;28;20450;-89
2022/11/25 11:11:10;;;;;;;0.30;0.30;;;5.00;99.90;;;;;;5030651;28;21024;-90
2022/11/25 11:13:35;;;;;;;0.30;0.30;;;5.00;99.90;;;;;;4977169;28;20478;-85
2022/11/25 11:16:02;;;;;;;0.30;0.30;;;5.00;99.90;;;;;;5006792;28;20513;-86
2022/11/25 11:18:35;;;;;;;0.30;0.30;;;5.10;99.90;;;;;;5003001;28;20188;-84
2022/11/25 11:21:01;;;;;;;0.30;0.30;;;5.10;99.90;;;;;;5007803;28;20533;-83
2022/11/25 11:23:28;;;;;;;0.30;0.30;;;5.10;99.90;;;;;;5005536;28;20990;-84
2022/11/25 11:25:55;;;;;;;0.30;0.30;;;5.10;99.90;;;;;;4991093;28;20187;-84
2022/11/25 11:28:27;;;;;;;0.30;0.30;;;5.10;99.90;;;;;;4982197;28;20443;-85
2022/11/25 11:30:57;;;;;;;0.30;0.30;;;5.10;99.90;;;;;;5005878;28;20503;-85
2022/11/25 11:33:41;;;;;;;0.30;0.30;;;5.10;99.90;;;;;;5005320;28;20467;-84
2022/11/25 11:36:27;;;;;;;0.30;0.30;;;5.20;99.90;;;;;;4992536;28;20483;-85
2022/11/25 11:39:22;;;;;;;0.30;0.30;;;5.20;99.90;;;;;;4969828;28;20443;-84
2022/11/25 11:42:07;;;;;;;0.30;0.30;;;5.20;99.90;;;;;;4963282;28;20496;-84
2022/11/25 11:44:56;;;;;;;0.30;0.30;;;5.20;99.90;;;;;;5006269;28;21012;-85
2022/11/25 11:47:37;;;;;;;0.30;0.30;;;5.20;99.90;;;;;;4998139;28;20455;-85
2022/11/25 11:50:27;;;;;;;0.40;0.40;;;5.20;99.90;;;;;;5006679;28;20880;-85
2022/11/25 11:53:25;;;;;;;0.30;0.30;;;5.20;99.90;;;;;;5010398;28;20412;-85
2022/11/25 11:56:19;;;;;;;0.30;0.30;;;5.20;99.90;;;;;;5002814;28;20498;-85
2022/11/25 11:59:22;;;;;;;0.30;0.30;;;5.20;99.90;;;;;;5003841;28;20438;-85
2022/11/25 12:02:26;;;;;;;0.30;0.30;;;5.30;99.90;;;;;;4998147;28;20897;-85
2022/11/25 12:05:14;;;;;;;0.30;0.30;;;5.30;99.90;;;;;;5008804;28;20438;-84
2022/11/25 12:08:18;;;;;;;0.30;0.30;;;5.30;99.90;;;;;;5008953;28;20508;-85
2022/11/25 12:10:57;;;;;;;0.30;0.30;;;5.30;99.90;;;;;;4970336;28;20442;-85
2022/11/25 12:13:44;;;;;;;0.30;0.30;;;5.40;99.90;;;;;;5009027;28;20454;-85
2022/11/25 12:16:23;;;;;;;0.30;0.30;;;5.40;99.90;;;;;;5008507;28;20518;-85
2022/11/25 12:18:54;;;;;;;0.30;0.30;;;5.50;99.90;;;;;;4998925;28;20550;-85
2022/11/25 12:21:53;;;;;;;0.20;0.20;;;5.50;99.90;;;;;;5013574;28;20463;-84
2022/11/25 12:24:33;;;;;;;0.30;0.30;;;5.50;99.90;;;;;;4990891;28;20493;-86
2022/11/25 12:27:04;;;;;;;0.30;0.30;;;5.50;99.90;;;;;;5006842;28;20447;-86
2022/11/25 12:29:41;;;;;;;0.30;0.30;;;5.50;99.90;;;;;;5010005;28;20443;-85
2022/11/25 12:32:45;;;;;;;0.30;0.30;;;5.50;99.90;;;;;;5004105;28;20482;-86
2022/11/25 12:35:17;;;;;;;0.30;0.30;;;5.60;99.90;;;;;;5006540;28;20851;-86
2022/11/25 12:37:48;;;;;;;0.30;0.30;;;5.60;99.90;;;;;;5008172;28;20458;-85
2022/11/25 12:40:23;;;;;;;0.30;0.30;;;5.60;99.90;;;;;;5016363;28;20475;-85
2022/11/25 12:42:51;;;;;;;0.30;0.30;;;5.70;99.90;;;;;;5004254;28;20446;-83
2022/11/25 12:45:22;;;;;;;0.23;0.23;;;5.70;99.90;;;;;;5017817;28;20477;-84
2022/11/25 12:47:48;;;;;;;0.20;0.20;;;5.70;99.90;;;;;;4980456;28;20803;-83
2022/11/25 12:50:25;;;;;;;0.30;0.30;;;5.80;99.90;;;;;;4998026;28;20450;-84
2022/11/25 12:52:59;;;;;;;0.30;0.30;;;5.70;99.90;;;;;;5004777;28;20597;-83
2022/11/25 12:55:26;;;;;;;0.30;0.30;;;5.80;99.90;;;;;;5008478;28;20833;-84
2022/11/25 12:58:14;;;;;;;0.30;0.30;;;5.80;99.90;;;;;;5003706;28;20435;-88
2022/11/25 13:01:28;;;;;;;0.30;0.30;;;5.80;99.90;;;;;;5004560;28;20451;-84
2022/11/25 13:04:23;;;;;;;0.30;0.30;;;5.70;99.90;;;;;;5019486;28;20454;-85
2022/11/25 13:07:01;;;;;;;0.20;0.20;;;5.70;99.90;;;;;;5011118;28;20547;-85
2022/11/25 13:09:57;;;;;;;0.23;0.23;;;5.80;99.90;;;;;;4995040;28;20443;-88
2022/11/25 13:12:31;;;;;;;0.20;0.20;;;5.80;99.90;;;;;;5017685;28;20466;-88
2022/11/25 13:15:20;;;;;;;0.30;0.30;;;5.80;99.90;;;;;;5027805;28;20505;-87
2022/11/25 13:17:48;;;;;;;0.20;0.20;;;5.80;99.90;;;;;;5010282;28;20457;-83
2022/11/25 13:20:25;;;;;;;0.20;0.20;;;5.90;99.90;;;;;;5008806;28;20441;-84
2022/11/25 13:23:10;;;;;;;0.30;0.30;;;5.90;99.90;;;;;;5025148;28;22333;-86
2022/11/25 13:25:37;;;;;;;0.30;0.30;;;5.90;99.90;;;;;;5026420;28;20470;-85
2022/11/25 13:28:32;;;;;;;0.30;0.30;;;5.90;99.90;;;;;;5022837;28;20452;-84